Time;durP1;ratioP1;P1;durP2;ratioP2;P2;SDS_P1;SDS_P2;PMS_P1;PMS_P2;Temp;Humidity;BMP_temperature;BMP_pressure;BME280_temperature;BME280_humidity;BME280_pressure;Samples;Min_cycle;Max_cycle;Signal;HPM_P1;HPM_P2
2023/10/03 00:19:31;;;;;;;8.18;5.10;;;;;;;23.31;50.40;101125.41;41431456;28;20053;-74
2023/10/03 00:39:33;;;;;;;7.53;5.18;;;;;;;23.21;50.40;101097.97;41436799;28;20419;-76
2023/10/03 00:59:33;;;;;;;9.50;5.82;;;;;;;23.22;50.02;101085.59;41422061;28;20043;-72
2023/10/03 01:19:34;;;;;;;7.15;4.90;;;;;;;23.20;50.08;101077.78;41417280;28;20051;-73
2023/10/03 01:39:35;;;;;;;8.30;5.38;;;;;;;23.15;49.86;101056.97;41391471;28;20046;-72
2023/10/03 01:59:35;;;;;;;7.72;5.68;;;;;;;23.00;50.00;101024.63;41395603;28;20073;-72
2023/10/03 02:19:35;;;;;;;8.20;5.13;;;;;;;23.12;49.70;101048.44;41408444;28;20042;-74
2023/10/03 02:39:39;;;;;;;7.63;5.28;;;;;;;23.02;49.35;101008.66;41405131;28;20522;-76
2023/10/03 02:59:40;;;;;;;6.60;4.68;;;;;;;22.90;49.60;101004.31;41399018;28;20676;-76
2023/10/03 03:19:40;;;;;;;6.60;4.40;;;;;;;22.99;49.56;101001.81;41409206;28;20042;-75
2023/10/03 03:40:10;;;;;;;6.88;5.05;;;;;;;22.96;49.29;100995.91;41434235;28;20038;-74
2023/10/03 04:00:13;;;;;;;7.53;4.60;;;;;;;23.08;49.42;100992.34;41429577;28;20049;-81
2023/10/03 04:20:35;;;;;;;6.53;5.13;;;;;;;23.19;48.93;100986.28;41405661;28;21006;-73
2023/10/03 04:40:37;;;;;;;9.82;5.90;;;;;;;23.09;50.13;100958.84;41382520;28;20046;-71
2023/10/03 05:00:37;;;;;;;16.83;6.85;;;;;;;22.86;51.73;100961.44;41385630;28;20054;-73
2023/10/03 05:20:38;;;;;;;14.20;6.10;;;;;;;22.68;48.49;100996.19;41405057;28;20097;-76
2023/10/03 05:40:39;;;;;;;14.02;6.50;;;;;;;22.74;48.32;100994.91;41382084;28;20041;-77
2023/10/03 06:00:40;;;;;;;11.10;6.45;;;;;;;22.84;47.65;101014.38;41372499;28;20056;-72
2023/10/03 06:20:41;;;;;;;18.25;11.88;;;;;;;22.76;46.88;101008.00;41368403;28;20082;-72
2023/10/03 06:40:42;;;;;;;20.00;12.52;;;;;;;22.90;46.98;101004.31;41358434;28;20104;-72
2023/10/03 07:00:42;;;;;;;16.35;11.00;;;;;;;22.76;47.02;101008.00;41346168;28;20042;-73
2023/10/03 07:20:43;;;;;;;15.40;9.10;;;;;;;22.85;46.16;101007.28;41374834;28;20049;-72
2023/10/03 07:40:44;;;;;;;12.82;8.43;;;;;;;22.91;46.48;101029.75;41362281;28;20544;-72
2023/10/03 08:00:45;;;;;;;17.40;8.23;;;;;;;22.16;46.05;101023.72;41371748;28;20069;-76
2023/10/03 08:20:53;;;;;;;20.10;8.52;;;;;;;22.01;45.59;101025.66;41408452;28;20565;-75
2023/10/03 08:40:56;;;;;;;21.42;7.22;;;;;;;22.30;45.05;100996.34;41420354;28;20149;-79
2023/10/03 09:01:02;;;;;;;15.57;7.15;;;;;;;22.51;44.97;100970.22;41451800;28;20486;-77
2023/10/03 09:21:04;;;;;;;22.02;8.45;;;;;;;22.90;45.05;100928.59;41464124;28;20045;-71
2023/10/03 09:41:05;;;;;;;14.70;6.93;;;;;;;23.13;45.49;100916.25;41417801;28;20043;-72
2023/10/03 10:01:06;;;;;;;11.32;7.70;;;;;;;23.10;43.96;100861.00;41389993;28;20058;-72
2023/10/03 10:21:30;;;;;;;15.30;6.78;;;;;;;23.81;43.62;100910.09;41398057;28;20473;-72
2023/10/03 10:41:31;;;;;;;11.23;4.03;;;;;;;24.08;40.80;100885.03;41383292;28;20459;-72
2023/10/03 11:01:38;;;;;;;16.90;6.80;;;;;;;24.17;45.00;100859.63;41394843;28;20053;-73
2023/10/03 11:21:40;;;;;;;53.70;8.50;;;;;;;24.36;46.46;100828.00;41398901;28;20054;-71
2023/10/03 11:41:40;;;;;;;30.02;6.97;;;;;;;24.49;46.66;100798.72;41383524;28;20045;-76
2023/10/03 12:01:48;;;;;;;22.75;6.63;;;;;;;24.64;46.75;100753.38;41389248;28;20102;-78
2023/10/03 12:21:49;;;;;;;17.45;6.40;;;;;;;25.01;47.36;100760.75;41368145;28;20053;-77
2023/10/03 12:41:49;;;;;;;14.18;5.97;;;;;;;25.05;46.84;100731.22;41425759;28;20046;-76
2023/10/03 13:01:50;;;;;;;10.57;5.15;;;;;;;25.21;46.05;100713.97;41418458;28;20104;-78
2023/10/03 13:21:51;;;;;;;13.18;5.00;;;;;;;25.30;45.33;100709.63;41404225;28;20101;-76
2023/10/03 13:41:54;;;;;;;9.93;4.60;;;;;;;23.30;47.36;100626.97;41420067;28;20536;-78
2023/10/03 14:01:55;;;;;;;7.45;4.47;;;;;;;23.61;49.78;100642.06;41439046;28;20046;-77
2023/10/03 14:21:59;;;;;;;10.88;4.63;;;;;;;24.51;48.11;100637.09;41342617;28;20052;-78
2023/10/03 14:42:00;;;;;;;;;;;;;;;23.64;48.23;100650.59;41333933;28;20054;-77
2023/10/03 15:02:00;;;;;;;5.95;3.95;;;;;;;23.50;48.90;100606.78;41362417;28;19929;-77
2023/10/03 15:22:05;;;;;;;6.93;3.78;;;;;;;23.32;50.15;100617.09;41377862;28;20105;-78
2023/10/03 15:42:06;;;;;;;9.85;4.07;;;;;;;22.85;50.64;100501.19;41355734;28;20125;-85
2023/10/03 16:02:07;;;;;;;17.02;4.68;;;;;;;23.59;50.06;100578.72;41357412;28;20082;-78
2023/10/03 16:22:07;;;;;;;9.10;4.13;;;;;;;23.65;49.94;100594.06;41355599;28;20160;-79
2023/10/03 16:42:08;;;;;;;12.88;4.10;;;;;;;23.56;50.30;100578.16;41356291;28;20054;-75
2023/10/03 17:02:09;;;;;;;11.75;4.43;;;;;;;23.66;49.93;100587.00;41325796;28;21441;-74
2023/10/03 17:22:10;;;;;;;8.88;4.05;;;;;;;23.86;49.87;100606.44;41333920;28;20046;-79
2023/10/03 17:42:11;;;;;;;14.75;5.53;;;;;;;23.79;48.25;100582.34;41355790;28;20053;-79
2023/10/03 18:02:14;;;;;;;13.07;5.60;;;;;;;23.82;49.83;100583.88;41343411;28;20134;-79
2023/10/03 18:22:15;;;;;;;9.90;5.32;;;;;;;23.64;50.68;100566.00;41321120;28;20042;-76
2023/10/03 18:42:16;;;;;;;59.22;17.23;;;;;;;23.89;51.08;100586.81;41349083;28;20050;-78
2023/10/03 19:02:18;;;;;;;39.97;13.90;;;;;;;23.71;52.01;100590.09;41368593;28;20042;-83
2023/10/03 19:22:21;;;;;;;37.60;11.40;;;;;;;23.75;51.37;100614.44;41429214;28;20089;-82
2023/10/03 19:42:23;;;;;;;25.77;9.55;;;;;;;23.83;51.27;100630.50;41364903;28;20043;-73
2023/10/03 20:02:24;;;;;;;23.75;8.85;;;;;;;23.82;50.20;100608.50;41309081;28;20050;-75
2023/10/03 20:22:28;;;;;;;25.80;9.43;;;;;;;23.79;50.67;100608.78;41345457;28;20050;-74
2023/10/03 20:42:30;;;;;;;23.00;8.57;;;;;;;23.74;50.96;100600.41;41349107;28;20047;-74
2023/10/03 21:02:32;;;;;;;13.98;7.55;;;;;;;23.63;50.88;100598.69;41373384;28;20041;-74
2023/10/03 21:22:33;;;;;;;14.63;7.05;;;;;;;23.72;52.02;100612.91;41353846;28;20046;-74
2023/10/03 21:42:34;;;;;;;14.50;7.30;;;;;;;23.59;52.08;100599.06;41353044;28;20534;-75
2023/10/03 22:02:35;;;;;;;13.38;6.68;;;;;;;23.55;52.26;100616.97;41357498;28;20038;-74
2023/10/03 22:22:35;;;;;;;10.95;6.60;;;;;;;23.63;52.16;100648.91;41355065;28;20077;-75
2023/10/03 22:42:38;;;;;;;10.20;6.60;;;;;;;23.29;51.79;100588.28;41383057;28;20057;-76
2023/10/03 23:02:39;;;;;;;12.32;6.43;;;;;;;23.57;52.00;100635.34;41370120;28;20120;-75
2023/10/03 23:22:40;;;;;;;11.30;6.30;;;;;;;23.50;52.02;100637.69;41342199;28;20526;-73
2023/10/03 23:42:46;;;;;;;10.88;6.00;;;;;;;23.60;52.03;100662.38;41339912;28;20039;-73
